Overview Statistics Trail Chart Weather Telemetry Raw packets
 

This is the latest recevied weather packets stored in our database for station/object LY3FF-10. If no packets are shown the sender has not sent any weather packets the latest 10 day(s).

<< 24 25 26 27 28 29 30 >>
Time Temp. Humidity Pressure Rain* Wind** Luminosity Snow
1788114584 18.33° C 70% 994.8 hPa - - - -
1788113724 18.33° C 69% 994.7 hPa - - - -
1788112944 18.89° C 68% 994.7 hPa - - - -
1788112140 18.89° C 67% 994.7 hPa - - - -
1788111400 19.44° C 65% 994.6 hPa - - - -
1788110605 20° C 65% 994.5 hPa - - - -
1788109720 20.56° C 64% 994.5 hPa - - - -
1788108990 21.11° C 63% 994.5 hPa - - - -
1788108141 22.22° C 62% 994.4 hPa - - - -
1788107270 22.22° C 61% 994.4 hPa - - - -
1788106435 23.33° C 60% 994.6 hPa - - - -
1788105595 23.33° C 60% 994.5 hPa - - - -
1788104730 23.89° C 59% 994.5 hPa - - - -
1788103948 24.44° C 59% 994.6 hPa - - - -
1788103135 24.44° C 59% 994.8 hPa - - - -
1788102334 23.89° C 59% 994.8 hPa - - - -
1788101584 25.56° C 60% 994.7 hPa - - - -
1788100860 26.67° C 60% 994.8 hPa - - - -
1788100055 29.44° C 60% 994.7 hPa - - - -
1788099330 23.33° C 62% 994.9 hPa - - - -
1788098540 24.44° C 62% 994.9 hPa - - - -
1788097775 25° C 61% 994.9 hPa - - - -
1788096924 24.44° C 60% 994.9 hPa - - - -
1788096095 28.33° C 60% 994.7 hPa - - - -
1788095300 24.44° C 60% 994.9 hPa - - - -

* Rain since midnight (hover to see other rain measurements)
** Current wind speed in m/s (hover to see current wind gust speed)